createdAt,value
2023-03-05T00:01:24.545Z,43.20
2023-03-05T00:03:53.542Z,41.10
2023-03-05T00:06:22.674Z,42.10
2023-03-05T00:08:52.147Z,44.50
2023-03-05T00:11:24.023Z,41.40
2023-03-05T00:13:52.446Z,42.10
2023-03-05T00:16:20.954Z,41.30
2023-03-05T00:18:49.560Z,42.00
2023-03-05T00:21:31.575Z,44.30
2023-03-05T00:24:01.737Z,44.50
2023-03-05T00:26:30.543Z,43.50
2023-03-05T00:28:58.900Z,42.80
2023-03-05T00:31:30.522Z,44.20
2023-03-05T00:34:00.070Z,41.00
2023-03-05T00:36:29.379Z,39.30
2023-03-05T00:38:58.143Z,50.00
2023-03-05T00:41:26.857Z,45.80
2023-03-05T00:43:56.085Z,46.10
2023-03-05T00:46:25.113Z,46.60
2023-03-05T00:48:55.285Z,40.90
2023-03-05T00:51:24.914Z,41.50
2023-03-05T00:53:53.604Z,41.70
2023-03-05T00:56:22.395Z,42.30
2023-03-05T00:58:51.447Z,44.70
2023-03-05T01:01:19.790Z,45.50
2023-03-05T01:03:49.076Z,41.90
2023-03-05T01:06:19.184Z,40.60
2023-03-05T01:08:48.149Z,50.20
2023-03-05T01:11:16.334Z,41.50
2023-03-05T01:13:47.054Z,41.90
2023-03-05T01:16:15.373Z,42.80
2023-03-05T01:18:43.755Z,35.10
2023-03-05T01:21:12.014Z,45.00
2023-03-05T01:23:43.259Z,45.60
2023-03-05T01:26:12.057Z,45.40
2023-03-05T01:28:41.253Z,45.90
2023-03-05T01:31:12.574Z,43.00
2023-03-05T01:33:41.247Z,43.90
2023-03-05T01:36:15.723Z,46.50
2023-03-05T01:38:46.392Z,52.40
2023-03-05T01:41:15.208Z,44.50
2023-03-05T01:43:46.826Z,44.70
2023-03-05T01:46:37.271Z,47.90
2023-03-05T01:49:08.854Z,44.60
2023-03-05T01:51:58.168Z,45.30
2023-03-05T01:54:29.052Z,43.70
2023-03-05T01:58:06.648Z,45.70
2023-03-05T02:00:36.291Z,44.10
2023-03-05T02:03:06.686Z,45.30
2023-03-05T02:05:37.300Z,43.50
2023-03-05T02:08:06.713Z,39.50
2023-03-05T02:10:38.476Z,46.00
2023-03-05T02:13:10.018Z,42.70
2023-03-05T02:15:39.156Z,42.10
2023-03-05T02:18:08.742Z,41.00
2023-03-05T02:20:48.813Z,39.30
2023-03-05T02:23:17.540Z,42.80
2023-03-05T02:25:45.898Z,42.10
2023-03-05T02:28:16.497Z,43.20
2023-03-05T02:30:44.578Z,35.60
2023-03-05T02:33:16.190Z,41.80
2023-03-05T02:35:44.412Z,39.30
2023-03-05T02:38:13.747Z,41.80
2023-03-05T02:40:41.920Z,38.10
2023-03-05T02:43:10.218Z,42.20
2023-03-05T02:45:39.449Z,39.00
2023-03-05T02:48:07.883Z,36.80
2023-03-05T02:50:36.271Z,37.40
2023-03-05T02:53:06.804Z,40.70
2023-03-05T02:55:36.984Z,37.40
2023-03-05T02:58:06.283Z,36.40
2023-03-05T03:00:34.822Z,40.20
2023-03-05T03:03:03.048Z,41.20
2023-03-05T03:05:31.321Z,41.80
2023-03-05T03:07:59.832Z,38.00
2023-03-05T03:10:28.280Z,36.70
2023-03-05T03:12:56.474Z,39.70
2023-03-05T03:15:25.018Z,35.40
2023-03-05T03:17:53.252Z,37.40
2023-03-05T03:20:21.931Z,33.50
2023-03-05T03:22:50.266Z,34.10
2023-03-05T03:25:19.352Z,41.50
2023-03-05T03:27:47.678Z,37.30
2023-03-05T03:30:16.515Z,39.60
2023-03-05T03:32:44.930Z,37.70
2023-03-05T03:35:13.360Z,38.70
2023-03-05T03:37:43.576Z,35.50
2023-03-05T03:40:16.177Z,35.90
2023-03-05T03:42:44.457Z,36.60
2023-03-05T03:45:13.097Z,36.30
2023-03-05T03:47:42.878Z,31.80
2023-03-05T03:50:11.577Z,35.10
2023-03-05T03:52:39.783Z,36.20
2023-03-05T03:55:10.007Z,38.20
2023-03-05T03:57:40.014Z,41.20
2023-03-05T04:00:08.875Z,34.40
2023-03-05T04:02:40.269Z,37.70
2023-03-05T04:05:10.374Z,38.60
2023-03-05T04:07:38.591Z,46.10
2023-03-05T04:10:07.663Z,38.30
2023-03-05T04:12:36.739Z,36.20
2023-03-05T04:15:08.062Z,36.90
2023-03-05T04:17:37.345Z,35.90
2023-03-05T04:20:06.248Z,41.00
2023-03-05T04:22:36.363Z,38.80
2023-03-05T04:25:08.568Z,36.00
2023-03-05T04:27:38.061Z,37.20
2023-03-05T04:30:26.041Z,36.60
2023-03-05T04:33:01.216Z,48.70
2023-03-05T04:35:29.615Z,39.20
2023-03-05T04:37:57.788Z,41.80
2023-03-05T04:40:26.211Z,39.30
2023-03-05T04:42:54.395Z,37.40
2023-03-05T04:45:22.773Z,35.30
2023-03-05T04:47:51.436Z,33.80
2023-03-05T04:50:20.197Z,30.60
2023-03-05T04:52:49.094Z,36.00
2023-03-05T04:55:18.182Z,39.30
2023-03-05T04:57:47.322Z,37.60
2023-03-05T05:00:19.524Z,35.90
2023-03-05T05:02:48.570Z,39.20
2023-03-05T05:05:17.928Z,37.70
2023-03-05T05:07:48.871Z,36.90
2023-03-05T05:10:17.484Z,37.90
2023-03-05T05:12:45.609Z,36.10
2023-03-05T05:15:14.786Z,36.90
2023-03-05T05:17:43.719Z,36.30
2023-03-05T05:20:12.792Z,35.60
2023-03-05T05:22:43.479Z,35.60
2023-03-05T05:25:11.721Z,33.10
2023-03-05T05:27:41.164Z,33.90
2023-03-05T05:30:09.832Z,31.90
2023-03-05T05:32:38.225Z,34.30
2023-03-05T05:35:06.766Z,31.30
2023-03-05T05:37:35.464Z,31.70
2023-03-05T05:40:05.835Z,34.60
2023-03-05T05:42:34.513Z,26.60
2023-03-05T05:45:03.325Z,26.30
2023-03-05T05:47:32.138Z,32.10
2023-03-05T05:50:02.280Z,26.70
2023-03-05T05:52:30.880Z,24.80
2023-03-05T05:54:59.567Z,24.50
2023-03-05T05:57:27.921Z,27.30
2023-03-05T05:59:58.148Z,28.30
2023-03-05T06:02:28.010Z,28.10
2023-03-05T06:04:58.278Z,26.70
2023-03-05T06:07:27.184Z,32.90
2023-03-05T06:09:56.168Z,23.70
2023-03-05T06:12:24.362Z,24.40
2023-03-05T06:15:02.147Z,24.10
2023-03-05T06:17:31.256Z,21.20
2023-03-05T06:20:02.696Z,19.60
2023-03-05T06:22:31.074Z,20.50
2023-03-05T06:24:59.551Z,16.60
2023-03-05T06:27:29.696Z,18.20
2023-03-05T06:29:58.351Z,15.30
2023-03-05T06:32:26.530Z,12.80
2023-03-05T06:34:54.792Z,16.60
2023-03-05T06:37:22.886Z,10.90
2023-03-05T06:39:51.458Z,8.60
2023-03-05T06:42:19.729Z,8.20
2023-03-05T06:44:48.535Z,8.40
2023-03-05T06:47:17.171Z,8.20
2023-03-05T06:49:45.370Z,7.90
2023-03-05T06:52:13.599Z,7.80
2023-03-05T06:54:41.780Z,6.60
2023-03-05T06:57:11.257Z,7.60
2023-03-05T06:59:39.599Z,5.00
2023-03-05T07:02:10.456Z,5.90
2023-03-05T07:04:39.580Z,3.80
2023-03-05T07:07:07.632Z,4.10
2023-03-05T07:09:43.035Z,3.60
2023-03-05T07:12:11.933Z,5.70
2023-03-05T07:14:40.635Z,4.10
2023-03-05T07:17:08.988Z,5.10
2023-03-05T07:19:39.288Z,4.50
2023-03-05T07:22:07.905Z,4.20
2023-03-05T07:24:37.399Z,2.10
2023-03-05T07:27:05.606Z,4.50
2023-03-05T07:29:36.400Z,1.80
2023-03-05T07:32:04.988Z,4.10
2023-03-05T07:34:33.514Z,1.80
2023-03-05T07:37:05.185Z,2.20
2023-03-05T07:39:33.984Z,2.00
2023-03-05T07:42:07.307Z,2.20
2023-03-05T07:44:48.316Z,2.40
2023-03-05T07:47:16.594Z,2.00
2023-03-05T07:49:45.345Z,5.30
2023-03-05T07:52:13.716Z,2.30
2023-03-05T07:54:42.246Z,4.50
2023-03-05T07:57:10.716Z,4.80
2023-03-05T07:59:39.046Z,2.40
2023-03-05T08:02:07.451Z,4.30
2023-03-05T08:04:35.876Z,3.90
2023-03-05T08:07:07.136Z,2.60
2023-03-05T08:09:35.511Z,2.90
2023-03-05T08:12:08.548Z,4.80
2023-03-05T08:14:38.254Z,2.90
2023-03-05T08:17:06.860Z,3.00
2023-03-05T08:19:36.725Z,3.50
2023-03-05T08:22:05.908Z,2.40
2023-03-05T08:24:34.847Z,3.10
2023-03-05T08:27:03.063Z,6.60
2023-03-05T08:29:31.335Z,7.20
2023-03-05T08:32:00.263Z,3.40
2023-03-05T08:34:28.530Z,3.80
2023-03-05T08:36:56.637Z,3.40
2023-03-05T08:39:24.918Z,5.00
2023-03-05T08:41:53.041Z,2.80
2023-03-05T08:44:22.334Z,3.10
2023-03-05T08:46:50.785Z,4.90
2023-03-05T08:49:19.045Z,2.70
2023-03-05T08:51:47.698Z,5.40
2023-03-05T08:54:15.847Z,3.50
2023-03-05T08:56:43.970Z,9.40
2023-03-05T08:59:13.677Z,9.70
2023-03-05T09:01:42.029Z,4.40
2023-03-05T09:04:10.552Z,6.70
2023-03-05T09:06:41.174Z,2.80
2023-03-05T09:09:09.719Z,4.20
2023-03-05T09:11:38.228Z,3.50
2023-03-05T09:14:06.881Z,7.30
2023-03-05T09:16:37.742Z,6.40
2023-03-05T09:19:06.312Z,4.60
2023-03-05T09:21:34.994Z,8.20
2023-03-05T09:24:03.657Z,5.90
2023-03-05T09:26:31.942Z,4.70
2023-03-05T09:29:00.352Z,2.60
2023-03-05T09:31:29.063Z,6.90
2023-03-05T09:33:57.168Z,5.10
2023-03-05T09:36:26.400Z,7.30
2023-03-05T09:38:54.722Z,3.80
2023-03-05T09:41:49.346Z,9.30
2023-03-05T09:46:55.283Z,12.10
2023-03-05T09:49:44.551Z,4.00
2023-03-05T09:52:21.528Z,6.90
2023-03-05T09:54:52.973Z,8.00
2023-03-05T09:57:23.054Z,9.40
2023-03-05T09:59:52.682Z,6.80
2023-03-05T10:02:27.977Z,18.90
2023-03-05T10:05:08.479Z,58.10
2023-03-05T10:07:37.122Z,10.70
2023-03-05T10:10:11.530Z,42.00
2023-03-05T10:12:42.480Z,45.40
2023-03-05T10:15:14.235Z,24.20
2023-03-05T10:17:48.921Z,31.20
2023-03-05T10:20:27.666Z,9.90
2023-03-05T10:23:16.784Z,31.00
2023-03-05T10:26:03.539Z,14.00
2023-03-05T10:28:31.804Z,9.70
2023-03-05T10:31:15.513Z,7.90
2023-03-05T10:33:46.975Z,5.60
2023-03-05T10:36:45.917Z,8.30
2023-03-05T10:39:17.351Z,33.50
2023-03-05T10:41:45.684Z,11.30
2023-03-05T10:44:16.780Z,6.10
2023-03-05T10:46:45.077Z,6.40
2023-03-05T10:49:29.101Z,10.20
2023-03-05T10:54:29.901Z,10.00
2023-03-05T10:57:17.953Z,8.90
2023-03-05T11:00:01.167Z,8.30
2023-03-05T11:02:29.437Z,173.40
2023-03-05T11:04:57.738Z,54.70
2023-03-05T11:07:34.476Z,43.90
2023-03-05T11:10:07.188Z,35.50
2023-03-05T11:12:36.046Z,15.30
2023-03-05T11:15:04.793Z,9.60
2023-03-05T11:17:38.389Z,6.50
2023-03-05T11:20:19.353Z,7.60
2023-03-05T11:23:07.020Z,7.70
2023-03-05T11:25:35.248Z,8.00
2023-03-05T11:28:33.649Z,8.20
2023-03-05T11:31:03.573Z,6.80
2023-03-05T11:33:32.701Z,5.40
2023-03-05T11:36:11.707Z,16.20
2023-03-05T11:39:08.262Z,11.10
2023-03-05T11:41:38.674Z,10.20
2023-03-05T11:44:13.349Z,9.50
2023-03-05T11:46:43.148Z,7.60
2023-03-05T11:49:12.890Z,7.10
2023-03-05T11:51:44.047Z,8.60
2023-03-05T11:54:14.679Z,9.70
2023-03-05T11:56:43.036Z,11.60
2023-03-05T11:59:14.473Z,8.60
2023-03-05T12:01:52.812Z,5.00
2023-03-05T12:04:21.147Z,10.00
2023-03-05T12:07:00.586Z,6.10
2023-03-05T12:09:41.301Z,6.10
2023-03-05T12:12:09.819Z,11.70
2023-03-05T12:14:45.388Z,8.40
2023-03-05T12:17:14.510Z,9.00
2023-03-05T12:19:53.906Z,10.40
2023-03-05T12:22:25.638Z,7.80
2023-03-05T12:25:14.012Z,8.40
2023-03-05T12:27:43.627Z,7.60
2023-03-05T12:30:32.114Z,6.20
2023-03-05T12:33:05.598Z,10.30
2023-03-05T12:35:38.299Z,6.90
2023-03-05T12:38:27.211Z,8.30
2023-03-05T12:41:15.776Z,7.40
2023-03-05T12:43:44.274Z,7.70
2023-03-05T12:46:25.815Z,5.00
2023-03-05T12:48:54.281Z,6.00
2023-03-05T12:51:29.832Z,11.20
2023-03-05T12:54:19.187Z,10.40
2023-03-05T12:56:47.606Z,11.70
2023-03-05T12:59:16.090Z,7.40
2023-03-05T13:02:00.843Z,9.70
2023-03-05T13:04:31.102Z,8.40
2023-03-05T13:07:06.032Z,10.50
2023-03-05T13:09:36.598Z,7.50
2023-03-05T13:12:05.361Z,6.40
2023-03-05T13:14:38.161Z,6.60
2023-03-05T13:17:24.970Z,6.70
2023-03-05T13:19:54.476Z,4.70
2023-03-05T13:22:24.778Z,9.10
2023-03-05T13:25:11.628Z,2.90
2023-03-05T13:27:41.666Z,7.60
2023-03-05T13:30:23.667Z,7.20
2023-03-05T13:32:52.526Z,4.70
2023-03-05T13:35:21.252Z,3.10
2023-03-05T13:37:53.725Z,4.70
2023-03-05T13:40:25.855Z,3.80
2023-03-05T13:42:54.060Z,2.20
2023-03-05T13:45:29.643Z,6.30
2023-03-05T13:47:58.876Z,2.40
2023-03-05T13:50:28.475Z,8.50
2023-03-05T13:52:59.295Z,4.60
2023-03-05T13:55:28.637Z,3.30
2023-03-05T13:57:56.949Z,7.50
2023-03-05T14:00:32.826Z,2.20
2023-03-05T14:03:20.851Z,4.30
2023-03-05T14:05:53.946Z,7.00
2023-03-05T14:08:23.163Z,3.10
2023-03-05T14:10:51.695Z,6.00
2023-03-05T14:16:13.634Z,2.70
2023-03-05T14:18:56.659Z,4.10
2023-03-05T14:21:25.398Z,3.80
2023-03-05T14:23:55.537Z,3.40
2023-03-05T14:26:29.114Z,2.50
2023-03-05T14:29:07.242Z,3.80
2023-03-05T14:31:46.306Z,5.60
2023-03-05T14:34:35.314Z,6.20
2023-03-05T14:37:04.868Z,7.00
2023-03-05T14:39:39.770Z,3.50
2023-03-05T14:42:32.990Z,3.00
2023-03-05T14:45:04.624Z,2.50
2023-03-05T14:47:36.485Z,2.30
2023-03-05T14:50:06.468Z,2.10
2023-03-05T14:52:35.115Z,4.90
2023-03-05T14:55:03.581Z,5.30
2023-03-05T14:57:34.807Z,5.20
2023-03-05T15:00:03.683Z,2.80
2023-03-05T15:02:32.359Z,9.30
2023-03-05T15:05:00.674Z,5.80
2023-03-05T15:07:30.078Z,4.30
2023-03-05T15:10:00.016Z,6.10
2023-03-05T15:12:28.269Z,12.00
2023-03-05T15:14:56.660Z,5.10
2023-03-05T15:17:34.465Z,5.10
2023-03-05T15:20:09.083Z,4.90
2023-03-05T15:22:37.338Z,3.70
2023-03-05T15:25:07.667Z,3.60
2023-03-05T15:27:36.488Z,7.40
2023-03-05T15:30:12.238Z,2.80
2023-03-05T15:32:41.087Z,3.30
2023-03-05T15:35:09.613Z,7.60
2023-03-05T15:37:38.038Z,6.80
2023-03-05T15:40:06.595Z,14.50
2023-03-05T15:42:35.177Z,6.50
2023-03-05T15:45:03.921Z,8.30
2023-03-05T15:47:33.549Z,12.60
2023-03-05T15:50:02.578Z,7.70
2023-03-05T15:52:32.128Z,6.40
2023-03-05T15:55:00.710Z,9.50
2023-03-05T15:57:29.293Z,12.50
2023-03-05T15:59:58.297Z,8.00
2023-03-05T16:02:26.713Z,7.30
2023-03-05T16:04:55.028Z,10.60
2023-03-05T16:07:23.947Z,12.50
2023-03-05T16:09:52.729Z,12.90
2023-03-05T16:12:22.627Z,6.70
2023-03-05T16:14:52.707Z,6.10
2023-03-05T16:17:21.893Z,12.30
2023-03-05T16:19:50.598Z,15.10
2023-03-05T16:22:18.824Z,21.30
2023-03-05T16:24:49.460Z,24.40
2023-03-05T16:27:17.660Z,24.80
2023-03-05T16:29:46.225Z,24.40
2023-03-05T16:32:19.681Z,28.00
2023-03-05T16:34:47.994Z,19.00
2023-03-05T16:37:20.417Z,20.80
2023-03-05T16:39:49.343Z,22.80
2023-03-05T16:42:17.714Z,21.00
2023-03-05T16:44:47.526Z,8.40
2023-03-05T16:47:16.408Z,9.20
2023-03-05T16:49:44.862Z,28.40
2023-03-05T16:52:19.210Z,31.50
2023-03-05T16:54:48.412Z,33.50
2023-03-05T16:57:17.795Z,31.00
2023-03-05T16:59:46.378Z,29.10
2023-03-05T17:02:15.487Z,29.20
2023-03-05T17:04:43.857Z,28.90
2023-03-05T17:07:12.350Z,40.30
2023-03-05T17:09:42.173Z,29.00
2023-03-05T17:12:11.595Z,36.90
2023-03-05T17:14:41.939Z,29.30
2023-03-05T17:17:10.288Z,28.70
2023-03-05T17:19:39.414Z,23.80
2023-03-05T17:22:07.734Z,27.00
2023-03-05T17:24:36.525Z,25.00
2023-03-05T17:27:05.501Z,24.20
2023-03-05T17:29:33.642Z,16.10
2023-03-05T17:32:01.760Z,20.00
2023-03-05T17:34:36.674Z,20.60
2023-03-05T17:37:05.154Z,21.20
2023-03-05T17:39:34.379Z,20.70
2023-03-05T17:42:02.973Z,15.90
2023-03-05T17:44:38.738Z,18.30
2023-03-05T17:47:07.739Z,19.70
2023-03-05T17:49:35.903Z,16.60
2023-03-05T17:52:04.421Z,19.80
2023-03-05T17:54:32.674Z,16.70
2023-03-05T17:57:01.516Z,16.90
2023-03-05T17:59:30.042Z,16.00
2023-03-05T18:01:58.340Z,17.10
2023-03-05T18:04:27.427Z,15.70
2023-03-05T18:06:55.856Z,19.50
2023-03-05T18:09:24.524Z,17.70
2023-03-05T18:11:52.786Z,15.20
2023-03-05T18:14:25.094Z,17.20
2023-03-05T18:16:54.814Z,16.20
2023-03-05T18:19:23.161Z,18.30
2023-03-05T18:21:51.919Z,16.40
2023-03-05T18:24:22.096Z,15.90
2023-03-05T18:26:52.898Z,16.40
2023-03-05T18:29:22.781Z,21.50
2023-03-05T18:31:51.235Z,15.80
2023-03-05T18:34:21.079Z,19.00
2023-03-05T18:36:50.766Z,23.80
2023-03-05T18:39:18.980Z,16.30
2023-03-05T18:41:47.924Z,18.40
2023-03-05T18:44:16.473Z,14.40
2023-03-05T18:46:44.793Z,18.20
2023-03-05T18:49:12.912Z,16.70
2023-03-05T18:51:44.167Z,16.80
2023-03-05T18:54:12.717Z,14.60
2023-03-05T18:56:42.994Z,20.80
2023-03-05T18:59:11.329Z,16.00
2023-03-05T19:01:39.596Z,16.90
2023-03-05T19:04:07.893Z,18.30
2023-03-05T19:06:36.783Z,15.00
2023-03-05T19:09:40.954Z,16.80
2023-03-05T19:12:18.769Z,14.40
2023-03-05T19:14:51.716Z,19.40
2023-03-05T19:17:21.535Z,19.50
2023-03-05T19:19:53.119Z,23.70
2023-03-05T19:22:22.346Z,24.30
2023-03-05T19:24:51.052Z,28.10
2023-03-05T19:27:20.839Z,29.60
2023-03-05T19:29:50.152Z,27.50
2023-03-05T19:32:18.514Z,23.00
2023-03-05T19:34:47.642Z,25.60
2023-03-05T19:37:16.199Z,24.80
2023-03-05T19:39:44.247Z,19.60
2023-03-05T19:42:12.384Z,20.20
2023-03-05T19:44:41.081Z,18.50
2023-03-05T19:47:09.288Z,19.80
2023-03-05T19:49:37.666Z,19.30
2023-03-05T19:52:06.418Z,25.90
2023-03-05T19:54:35.131Z,20.70
2023-03-05T19:57:05.435Z,25.10
2023-03-05T19:59:34.134Z,20.00
2023-03-05T20:02:02.375Z,23.60
2023-03-05T20:04:32.266Z,27.00
2023-03-05T20:07:00.653Z,25.50
2023-03-05T20:09:29.494Z,23.50
2023-03-05T20:11:58.541Z,37.70
2023-03-05T20:14:27.143Z,21.20
2023-03-05T20:16:56.719Z,20.00
2023-03-05T20:19:25.318Z,20.30
2023-03-05T20:21:53.749Z,20.60
2023-03-05T20:24:22.508Z,20.80
2023-03-05T20:26:50.868Z,22.10
2023-03-05T20:29:24.047Z,15.40
2023-03-05T20:31:52.838Z,21.50
2023-03-05T20:34:21.440Z,21.50
2023-03-05T20:36:49.926Z,24.40
2023-03-05T20:39:18.912Z,27.90
2023-03-05T20:41:47.184Z,24.20
2023-03-05T20:44:16.922Z,29.80
2023-03-05T20:47:22.727Z,27.20
2023-03-05T20:50:00.467Z,21.90
2023-03-05T20:52:29.593Z,26.90
2023-03-05T20:54:58.859Z,28.90
2023-03-05T20:57:27.249Z,25.20
2023-03-05T20:59:55.785Z,32.80
2023-03-05T21:02:24.026Z,36.50
2023-03-05T21:04:52.554Z,32.60
2023-03-05T21:07:21.034Z,36.60
2023-03-05T21:09:49.145Z,43.00
2023-03-05T21:12:18.151Z,38.00
2023-03-05T21:14:46.451Z,36.30
2023-03-05T21:17:17.986Z,46.80
2023-03-05T21:19:46.400Z,40.60
2023-03-05T21:22:14.525Z,45.20
2023-03-05T21:25:23.010Z,43.80
2023-03-05T21:27:55.083Z,43.30
2023-03-05T21:30:31.568Z,52.30
2023-03-05T21:33:00.314Z,68.40
2023-03-05T21:35:28.831Z,95.90
2023-03-05T21:37:57.066Z,108.40
2023-03-05T21:40:25.626Z,156.10
2023-03-05T21:42:53.890Z,142.20
2023-03-05T21:45:24.301Z,111.70
2023-03-05T21:47:54.180Z,114.00
2023-03-05T21:50:23.777Z,89.50
2023-03-05T21:52:54.686Z,98.10
2023-03-05T21:55:54.427Z,72.50
2023-03-05T21:58:25.244Z,67.90
2023-03-05T22:00:53.464Z,56.20
2023-03-05T22:03:21.574Z,58.60
2023-03-05T22:05:49.923Z,59.60
2023-03-05T22:08:18.080Z,67.60
2023-03-05T22:10:48.484Z,67.80
2023-03-05T22:13:18.022Z,57.20
2023-03-05T22:15:47.942Z,49.20
2023-03-05T22:18:18.344Z,46.80
2023-03-05T22:20:47.236Z,50.10
2023-03-05T22:23:15.515Z,55.30
2023-03-05T22:25:43.881Z,63.50
2023-03-05T22:28:12.473Z,67.40
2023-03-05T22:30:42.727Z,85.50
2023-03-05T22:33:11.385Z,61.80
2023-03-05T22:35:40.484Z,45.20
2023-03-05T22:38:09.174Z,48.50
2023-03-05T22:40:40.258Z,50.80
2023-03-05T22:43:08.606Z,40.70
2023-03-05T22:45:36.713Z,42.50
2023-03-05T22:48:05.736Z,38.60
2023-03-05T22:50:35.003Z,36.50
2023-03-05T22:53:03.750Z,34.10
2023-03-05T22:55:32.520Z,36.00
2023-03-05T22:58:01.061Z,38.70
2023-03-05T23:00:29.512Z,41.40
2023-03-05T23:02:57.963Z,46.80
2023-03-05T23:05:26.268Z,37.60
2023-03-05T23:07:54.662Z,28.00
2023-03-05T23:10:28.862Z,31.50
2023-03-05T23:12:58.524Z,52.50
2023-03-05T23:15:34.314Z,52.00
2023-03-05T23:18:02.933Z,69.40
2023-03-05T23:20:33.333Z,80.40
2023-03-05T23:23:01.822Z,63.40
2023-03-05T23:25:30.880Z,91.30
2023-03-05T23:27:59.375Z,89.30
2023-03-05T23:30:34.714Z,82.20
2023-03-05T23:33:04.256Z,69.60
2023-03-05T23:35:34.199Z,60.10
2023-03-05T23:38:04.253Z,58.80
2023-03-05T23:40:36.615Z,79.30
2023-03-05T23:43:04.937Z,66.10
2023-03-05T23:45:43.603Z,65.40
2023-03-05T23:48:11.754Z,55.20
2023-03-05T23:50:41.171Z,56.30
2023-03-05T23:53:10.085Z,60.50
2023-03-05T23:55:42.539Z,60.00
2023-03-05T23:58:12.603Z,45.70
